createdAt,value
2023-06-10T00:02:25.046Z,24.80
2023-06-10T00:04:53.633Z,24.20
2023-06-10T00:07:20.916Z,24.30
2023-06-10T00:09:48.522Z,24.50
2023-06-10T00:12:15.935Z,24.30
2023-06-10T00:14:43.321Z,23.40
2023-06-10T00:17:10.594Z,23.70
2023-06-10T00:19:39.881Z,23.60
2023-06-10T00:22:07.245Z,23.80
2023-06-10T00:24:34.538Z,24.10
2023-06-10T00:27:01.745Z,24.40
2023-06-10T00:29:29.028Z,24.30
2023-06-10T00:31:58.673Z,23.70
2023-06-10T00:34:26.514Z,23.80
2023-06-10T00:36:53.744Z,24.10
2023-06-10T00:39:21.030Z,24.20
2023-06-10T00:41:48.282Z,24.20
2023-06-10T00:44:16.466Z,24.20
2023-06-10T00:46:43.774Z,24.10
2023-06-10T00:49:11.348Z,23.90
2023-06-10T00:51:38.669Z,24.20
2023-06-10T00:54:06.678Z,23.80
2023-06-10T00:56:36.087Z,23.40
2023-06-10T00:59:03.352Z,23.20
2023-06-10T01:01:31.023Z,23.30
2023-06-10T01:03:59.802Z,22.90
2023-06-10T01:06:48.389Z,22.90
2023-06-10T01:09:32.711Z,22.30
2023-06-10T01:12:09.904Z,22.50
2023-06-10T01:14:45.962Z,22.50
2023-06-10T01:17:13.731Z,22.50
2023-06-10T01:19:41.935Z,22.50
2023-06-10T01:22:09.175Z,23.00
2023-06-10T01:24:37.162Z,23.10
2023-06-10T01:27:09.593Z,23.30
2023-06-10T01:29:46.819Z,23.40
2023-06-10T01:32:41.358Z,23.30
2023-06-10T01:35:09.911Z,23.10
2023-06-10T01:37:39.710Z,22.70
2023-06-10T01:40:07.959Z,22.70
2023-06-10T01:42:35.450Z,22.20
2023-06-10T01:45:02.922Z,22.20
2023-06-10T01:47:30.397Z,22.00
2023-06-10T01:49:57.724Z,22.00
2023-06-10T01:52:24.923Z,22.10
2023-06-10T01:54:52.183Z,22.10
2023-06-10T01:57:20.315Z,22.00
2023-06-10T01:59:47.692Z,22.10
2023-06-10T02:02:14.979Z,22.10
2023-06-10T02:04:42.234Z,22.10
2023-06-10T02:07:09.479Z,21.80
2023-06-10T02:09:37.736Z,21.60
2023-06-10T02:12:05.799Z,22.00
2023-06-10T02:14:34.442Z,21.90
2023-06-10T02:17:01.811Z,21.50
2023-06-10T02:19:29.461Z,21.20
2023-06-10T02:21:56.753Z,21.30
2023-06-10T02:24:24.051Z,21.30
2023-06-10T02:26:52.849Z,21.20
2023-06-10T02:29:20.073Z,21.30
2023-06-10T02:31:47.331Z,21.40
2023-06-10T02:34:14.952Z,21.30
2023-06-10T02:36:42.167Z,21.30
2023-06-10T02:39:09.946Z,21.20
2023-06-10T02:41:37.248Z,21.10
2023-06-10T02:44:04.613Z,21.10
2023-06-10T02:46:31.953Z,21.10
2023-06-10T02:48:59.175Z,21.00
2023-06-10T02:51:26.378Z,21.10
2023-06-10T02:53:53.606Z,21.20
2023-06-10T02:56:21.193Z,21.30
2023-06-10T02:58:49.265Z,20.90
2023-06-10T03:01:16.552Z,21.00
2023-06-10T03:03:44.113Z,21.30
2023-06-10T03:06:14.786Z,21.50
2023-06-10T03:08:42.068Z,21.40
2023-06-10T03:11:09.407Z,21.30
2023-06-10T03:13:36.636Z,21.20
2023-06-10T03:16:04.430Z,21.20
2023-06-10T03:18:31.808Z,21.20
2023-06-10T03:20:59.099Z,21.20
2023-06-10T03:23:26.340Z,21.20
2023-06-10T03:25:55.861Z,21.30
2023-06-10T03:28:23.129Z,21.00
2023-06-10T03:30:50.767Z,21.20
2023-06-10T03:33:17.998Z,21.30
2023-06-10T03:35:45.225Z,20.90
2023-06-10T03:38:12.434Z,20.90
2023-06-10T03:40:39.678Z,21.00
2023-06-10T03:43:06.951Z,20.90
2023-06-10T03:45:34.414Z,20.80
2023-06-10T03:48:02.511Z,21.00
2023-06-10T03:50:30.069Z,20.90
2023-06-10T03:52:58.840Z,20.90
2023-06-10T03:55:26.196Z,20.90
2023-06-10T03:57:53.959Z,20.90
2023-06-10T04:00:22.961Z,20.90
2023-06-10T04:02:52.764Z,21.20
2023-06-10T04:05:24.083Z,21.30
2023-06-10T04:07:51.532Z,21.40
2023-06-10T04:10:18.761Z,21.40
2023-06-10T04:12:46.389Z,21.00
2023-06-10T04:15:14.242Z,20.90
2023-06-10T04:17:42.169Z,21.10
2023-06-10T04:20:10.826Z,21.10
2023-06-10T04:22:38.103Z,21.30
2023-06-10T04:25:05.554Z,21.80
2023-06-10T04:27:32.797Z,21.70
2023-06-10T04:30:00.068Z,21.40
2023-06-10T04:32:27.631Z,21.30
2023-06-10T04:34:55.090Z,21.40
2023-06-10T04:37:22.308Z,21.60
2023-06-10T04:39:49.543Z,21.80
2023-06-10T04:42:16.772Z,21.80
2023-06-10T04:44:44.062Z,21.90
2023-06-10T04:47:11.287Z,21.90
2023-06-10T04:49:38.508Z,22.00
2023-06-10T04:52:06.295Z,21.70
2023-06-10T04:54:33.714Z,21.80
2023-06-10T04:57:03.771Z,22.10
2023-06-10T04:59:31.085Z,21.90
2023-06-10T05:01:58.372Z,22.00
2023-06-10T05:04:25.615Z,22.00
2023-06-10T05:06:52.850Z,22.10
2023-06-10T05:09:20.056Z,21.80
2023-06-10T05:11:47.470Z,22.00
2023-06-10T05:14:15.591Z,22.00
2023-06-10T05:16:43.922Z,21.50
2023-06-10T05:19:11.187Z,21.40
2023-06-10T05:21:38.480Z,21.40
2023-06-10T05:24:06.145Z,21.50
2023-06-10T05:26:34.216Z,21.50
2023-06-10T05:29:01.449Z,21.80
2023-06-10T05:31:28.686Z,21.70
2023-06-10T05:33:55.956Z,22.00
2023-06-10T05:36:23.728Z,22.30
2023-06-10T05:38:50.955Z,22.20
2023-06-10T05:41:18.259Z,21.60
2023-06-10T05:43:45.592Z,21.20
2023-06-10T05:46:12.882Z,21.20
2023-06-10T05:48:40.089Z,21.30
2023-06-10T05:51:07.346Z,21.10
2023-06-10T05:53:34.626Z,21.70
2023-06-10T05:56:01.859Z,22.00
2023-06-10T05:58:29.094Z,21.80
2023-06-10T06:00:56.453Z,21.30
2023-06-10T06:03:23.796Z,21.40
2023-06-10T06:05:51.129Z,20.80
2023-06-10T06:08:19.632Z,21.00
2023-06-10T06:10:48.787Z,21.30
2023-06-10T06:13:16.136Z,21.60
2023-06-10T06:15:43.404Z,21.40
2023-06-10T06:18:10.735Z,21.70
2023-06-10T06:20:37.986Z,21.90
2023-06-10T06:23:05.257Z,22.10
2023-06-10T06:25:32.931Z,21.80
2023-06-10T06:28:00.590Z,22.30
2023-06-10T06:30:30.566Z,22.50
2023-06-10T06:32:58.208Z,22.00
2023-06-10T06:35:25.961Z,22.10
2023-06-10T06:37:56.577Z,21.90
2023-06-10T06:40:31.114Z,22.00
2023-06-10T06:43:03.332Z,22.10
2023-06-10T06:45:35.113Z,22.50
2023-06-10T06:48:06.978Z,22.70
2023-06-10T06:50:40.717Z,22.90
2023-06-10T06:53:15.139Z,23.20
2023-06-10T06:55:46.896Z,22.80
2023-06-10T06:58:19.850Z,22.70
2023-06-10T07:00:55.567Z,23.10
2023-06-10T07:03:22.849Z,23.10
2023-06-10T07:05:50.077Z,23.10
2023-06-10T07:08:17.383Z,23.40
2023-06-10T07:10:44.680Z,23.70
2023-06-10T07:13:14.546Z,23.60
2023-06-10T07:15:42.601Z,23.60
2023-06-10T07:18:09.834Z,23.50
2023-06-10T07:20:37.089Z,22.90
2023-06-10T07:23:04.346Z,23.20
2023-06-10T07:25:31.552Z,23.90
2023-06-10T07:27:58.793Z,23.90
2023-06-10T07:30:26.087Z,24.20
2023-06-10T07:32:53.800Z,24.10
2023-06-10T07:35:21.175Z,24.40
2023-06-10T07:37:48.567Z,24.50
2023-06-10T07:40:15.861Z,24.40
2023-06-10T07:42:44.184Z,24.60
2023-06-10T07:45:11.886Z,24.70
2023-06-10T07:47:39.421Z,24.70
2023-06-10T07:50:06.956Z,24.90
2023-06-10T07:52:34.258Z,24.70
2023-06-10T07:55:01.553Z,25.10
2023-06-10T07:57:28.842Z,25.30
2023-06-10T07:59:58.675Z,25.20
2023-06-10T08:02:26.122Z,25.00
2023-06-10T08:04:53.577Z,25.20
2023-06-10T08:07:21.392Z,25.30
2023-06-10T08:09:48.923Z,25.20
2023-06-10T08:12:16.443Z,25.60
2023-06-10T08:14:43.728Z,25.60
2023-06-10T08:17:11.785Z,25.50
2023-06-10T08:19:38.999Z,26.20
2023-06-10T08:22:06.370Z,26.40
2023-06-10T08:24:34.933Z,27.10
2023-06-10T08:27:02.167Z,27.50
2023-06-10T08:29:30.323Z,28.20
2023-06-10T08:31:57.711Z,28.80
2023-06-10T08:34:25.168Z,30.10
2023-06-10T08:36:54.326Z,29.10
2023-06-10T08:39:22.277Z,29.50
2023-06-10T08:42:20.144Z,28.80
2023-06-10T08:44:48.403Z,29.30
2023-06-10T08:47:16.864Z,29.00
2023-06-10T08:49:48.102Z,29.00
2023-06-10T08:52:21.359Z,28.50
2023-06-10T08:55:00.546Z,28.70
2023-06-10T08:57:28.983Z,29.20
2023-06-10T08:59:58.469Z,29.50
2023-06-10T09:02:26.309Z,29.40
2023-06-10T09:04:53.871Z,29.20
2023-06-10T09:07:21.947Z,30.10
2023-06-10T09:09:50.676Z,30.60
2023-06-10T09:12:17.935Z,31.30
2023-06-10T09:14:45.273Z,31.00
2023-06-10T09:17:12.647Z,30.30
2023-06-10T09:19:40.454Z,29.90
2023-06-10T09:22:07.812Z,29.60
2023-06-10T09:24:35.456Z,30.80
2023-06-10T09:27:09.837Z,31.30
2023-06-10T09:29:50.148Z,30.80
2023-06-10T09:32:19.605Z,30.80
2023-06-10T09:34:47.469Z,30.00
2023-06-10T09:37:20.904Z,30.70
2023-06-10T09:40:04.112Z,30.90
2023-06-10T09:42:35.176Z,30.90
2023-06-10T09:45:03.481Z,31.10
2023-06-10T09:47:30.959Z,30.80
2023-06-10T09:49:58.276Z,30.10
2023-06-10T09:52:26.549Z,29.50
2023-06-10T09:54:54.881Z,29.70
2023-06-10T09:57:23.731Z,29.70
2023-06-10T09:59:55.308Z,29.50
2023-06-10T10:02:22.807Z,29.30
2023-06-10T10:04:50.282Z,29.20
2023-06-10T10:07:17.930Z,28.80
2023-06-10T10:09:45.216Z,28.90
2023-06-10T10:12:16.946Z,29.00
2023-06-10T10:14:48.416Z,28.80
2023-06-10T10:17:16.763Z,28.90
2023-06-10T10:19:54.937Z,29.00
2023-06-10T10:22:30.776Z,29.50
2023-06-10T10:25:01.153Z,29.50
2023-06-10T10:27:29.550Z,29.50
2023-06-10T10:30:00.250Z,29.40
2023-06-10T10:33:00.630Z,29.50
2023-06-10T10:35:28.029Z,29.70
2023-06-10T10:37:56.247Z,29.20
2023-06-10T10:40:24.646Z,29.10
2023-06-10T10:42:52.983Z,29.10
2023-06-10T10:45:21.007Z,29.30
2023-06-10T10:47:50.108Z,29.10
2023-06-10T10:50:19.673Z,29.30
2023-06-10T10:52:57.648Z,29.20
2023-06-10T10:55:25.990Z,28.90
2023-06-10T10:57:57.369Z,28.90
2023-06-10T11:00:47.977Z,28.60
2023-06-10T11:03:19.984Z,28.50
2023-06-10T11:05:49.996Z,28.50
2023-06-10T11:08:40.587Z,28.60
2023-06-10T11:11:27.115Z,28.80
2023-06-10T11:14:05.595Z,29.30
2023-06-10T11:16:43.809Z,29.20
2023-06-10T11:19:11.491Z,28.80
2023-06-10T11:22:00.701Z,29.10
2023-06-10T11:24:29.127Z,29.20
2023-06-10T11:26:56.366Z,29.30
2023-06-10T11:29:24.533Z,29.70
2023-06-10T11:31:52.711Z,29.90
2023-06-10T11:34:25.727Z,29.30
2023-06-10T11:36:53.116Z,29.30
2023-06-10T11:39:22.194Z,29.00
2023-06-10T11:41:49.738Z,29.40
2023-06-10T11:44:20.022Z,29.40
2023-06-10T11:46:49.730Z,29.60
2023-06-10T11:49:17.497Z,29.70
2023-06-10T11:51:53.117Z,29.70
2023-06-10T11:54:20.583Z,29.80
2023-06-10T11:56:49.335Z,29.90
2023-06-10T11:59:16.634Z,29.80
2023-06-10T12:01:45.638Z,29.80
2023-06-10T12:04:17.323Z,30.00
2023-06-10T12:06:52.880Z,29.50
2023-06-10T12:09:27.389Z,30.00
2023-06-10T12:12:00.203Z,30.40
2023-06-10T12:14:56.233Z,30.00
2023-06-10T12:17:35.989Z,29.90
2023-06-10T12:20:39.114Z,30.00
2023-06-10T12:23:28.499Z,30.50
2023-06-10T12:26:23.366Z,30.20
2023-06-10T12:29:01.734Z,29.70
2023-06-10T12:32:43.907Z,30.00
2023-06-10T12:39:42.029Z,30.40
2023-06-10T12:42:10.844Z,30.40
2023-06-10T12:45:34.390Z,29.90
2023-06-10T12:51:19.367Z,29.90
2023-06-10T12:54:17.683Z,29.90
2023-06-10T12:57:18.102Z,29.50
2023-06-10T13:00:17.371Z,29.50
2023-06-10T13:03:17.776Z,29.70
2023-06-10T13:06:17.380Z,29.90
2023-06-10T13:09:18.358Z,30.70
2023-06-10T13:12:04.623Z,31.20
2023-06-10T13:14:32.300Z,31.30
2023-06-10T13:16:59.609Z,31.50
2023-06-10T13:19:27.023Z,31.60
2023-06-10T13:21:54.373Z,31.70
2023-06-10T13:24:21.725Z,31.30
2023-06-10T13:26:49.825Z,30.90
2023-06-10T13:29:17.053Z,30.70
2023-06-10T13:31:44.419Z,30.40
2023-06-10T13:34:12.175Z,30.40
2023-06-10T13:36:39.406Z,30.50
2023-06-10T13:39:06.682Z,30.80
2023-06-10T13:41:33.944Z,30.90
2023-06-10T13:44:01.263Z,31.20
2023-06-10T13:46:28.654Z,31.00
2023-06-10T13:48:55.938Z,30.60
2023-06-10T13:51:23.163Z,30.80
2023-06-10T13:53:54.884Z,30.90
2023-06-10T13:56:22.157Z,30.70
2023-06-10T13:58:49.476Z,31.40
2023-06-10T14:01:16.780Z,31.20
2023-06-10T14:03:44.204Z,31.00
2023-06-10T14:06:13.977Z,30.90
2023-06-10T14:08:41.973Z,30.90
2023-06-10T14:11:09.426Z,31.20
2023-06-10T14:13:39.295Z,31.50
2023-06-10T14:16:06.646Z,31.30
2023-06-10T14:18:33.869Z,31.60
2023-06-10T14:21:01.124Z,31.60
2023-06-10T14:23:28.379Z,31.50
2023-06-10T14:25:55.611Z,31.70
2023-06-10T14:28:22.939Z,31.50
2023-06-10T14:30:50.657Z,31.10
2023-06-10T14:33:17.944Z,30.80
2023-06-10T14:35:45.337Z,30.50
2023-06-10T14:38:12.619Z,30.60
2023-06-10T14:40:39.872Z,30.60
2023-06-10T14:43:10.960Z,30.50
2023-06-10T14:45:39.045Z,30.50
2023-06-10T14:48:08.050Z,30.60
2023-06-10T14:50:38.930Z,30.60
2023-06-10T14:53:06.204Z,30.60
2023-06-10T14:55:33.475Z,30.70
2023-06-10T14:58:00.800Z,30.80
2023-06-10T15:00:28.040Z,31.00
2023-06-10T15:02:56.837Z,31.20
2023-06-10T15:05:24.079Z,31.10
2023-06-10T15:07:51.330Z,31.00
2023-06-10T15:10:20.433Z,31.20
2023-06-10T15:12:56.513Z,32.00
2023-06-10T15:15:24.367Z,31.40
2023-06-10T15:17:51.749Z,31.60
2023-06-10T15:20:19.036Z,31.90
2023-06-10T15:22:46.281Z,32.30
2023-06-10T15:27:43.635Z,33.80
2023-06-10T15:30:11.105Z,34.10
2023-06-10T15:32:38.387Z,32.80
2023-06-10T15:35:06.202Z,33.60
2023-06-10T15:37:33.435Z,33.00
2023-06-10T15:40:00.793Z,33.10
2023-06-10T15:42:28.029Z,32.40
2023-06-10T15:44:55.348Z,32.50
2023-06-10T15:47:22.685Z,32.00
2023-06-10T15:49:50.080Z,31.60
2023-06-10T15:52:17.300Z,31.00
2023-06-10T15:54:44.516Z,29.90
2023-06-10T15:57:11.780Z,29.50
2023-06-10T15:59:39.060Z,29.50
2023-06-10T16:02:06.977Z,29.40
2023-06-10T16:04:34.239Z,29.60
2023-06-10T16:07:01.475Z,29.20
2023-06-10T16:09:28.707Z,29.50
2023-06-10T16:11:56.053Z,29.30
2023-06-10T16:14:23.245Z,29.10
2023-06-10T16:16:50.653Z,29.40
2023-06-10T16:19:18.239Z,29.20
2023-06-10T16:21:47.344Z,29.10
2023-06-10T16:24:16.477Z,29.60
2023-06-10T16:26:44.012Z,29.90
2023-06-10T16:29:11.350Z,30.00
2023-06-10T16:31:38.666Z,29.70
2023-06-10T16:34:05.959Z,29.80
2023-06-10T16:36:33.244Z,30.00
2023-06-10T16:39:00.475Z,29.70
2023-06-10T16:41:27.857Z,30.20
2023-06-10T16:43:55.084Z,30.00
2023-06-10T16:46:23.760Z,30.00
2023-06-10T16:48:51.090Z,29.80
2023-06-10T16:51:18.315Z,30.00
2023-06-10T16:53:46.004Z,30.10
2023-06-10T16:56:13.232Z,29.70
2023-06-10T16:58:40.501Z,29.70
2023-06-10T17:01:09.162Z,29.70
2023-06-10T17:03:36.803Z,29.70
2023-06-10T17:06:04.211Z,29.60
2023-06-10T17:08:31.594Z,29.70
2023-06-10T17:10:58.806Z,29.50
2023-06-10T17:13:26.518Z,29.60
2023-06-10T17:15:54.409Z,29.50
2023-06-10T17:18:21.817Z,29.60
2023-06-10T17:20:49.231Z,29.70
2023-06-10T17:23:16.764Z,29.70
2023-06-10T17:25:44.029Z,29.40
2023-06-10T17:28:11.317Z,29.20
2023-06-10T17:30:38.620Z,29.20
2023-06-10T17:33:06.252Z,29.30
2023-06-10T17:35:33.553Z,29.10
2023-06-10T17:38:00.911Z,28.90
2023-06-10T17:40:28.177Z,28.80
2023-06-10T17:42:55.427Z,28.60
2023-06-10T17:45:24.516Z,28.70
2023-06-10T17:47:51.896Z,28.40
2023-06-10T17:50:20.049Z,28.30
2023-06-10T17:52:47.579Z,28.20
2023-06-10T17:55:14.847Z,28.40
2023-06-10T17:57:42.059Z,28.60
2023-06-10T18:00:09.710Z,28.60
2023-06-10T18:02:37.106Z,28.60
2023-06-10T18:05:04.638Z,28.70
2023-06-10T18:07:32.575Z,28.70
2023-06-10T18:10:00.119Z,28.90
2023-06-10T18:12:27.379Z,28.60
2023-06-10T18:14:54.629Z,28.40
2023-06-10T18:17:21.916Z,28.30
2023-06-10T18:19:49.142Z,27.80
2023-06-10T18:22:16.411Z,27.70
2023-06-10T18:24:43.647Z,27.70
2023-06-10T18:27:12.788Z,27.70
2023-06-10T18:29:41.293Z,27.90
2023-06-10T18:32:09.306Z,28.00
2023-06-10T18:34:37.008Z,28.20
2023-06-10T18:37:04.887Z,28.20
2023-06-10T18:39:32.122Z,28.00
2023-06-10T18:42:01.698Z,28.10
2023-06-10T18:44:29.425Z,27.90
2023-06-10T18:46:56.677Z,27.80
2023-06-10T18:49:23.899Z,27.70
2023-06-10T18:51:51.161Z,27.70
2023-06-10T18:54:18.688Z,27.90
2023-06-10T18:56:46.050Z,27.50
2023-06-10T18:59:13.402Z,27.40
2023-06-10T19:01:40.889Z,27.50
2023-06-10T19:04:08.739Z,27.40
2023-06-10T19:06:38.595Z,27.40
2023-06-10T19:09:05.834Z,27.10
2023-06-10T19:11:34.033Z,27.20
2023-06-10T19:14:01.823Z,27.30
2023-06-10T19:16:29.106Z,27.20
2023-06-10T19:18:56.416Z,27.00
2023-06-10T19:21:23.701Z,27.10
2023-06-10T19:23:52.028Z,26.70
2023-06-10T19:26:19.314Z,26.50
2023-06-10T19:28:46.571Z,26.60
2023-06-10T19:31:13.941Z,26.80
2023-06-10T19:33:41.204Z,26.70
2023-06-10T19:36:08.507Z,26.60
2023-06-10T19:38:36.368Z,26.80
2023-06-10T19:41:05.076Z,26.60
2023-06-10T19:43:32.458Z,26.70
2023-06-10T19:45:59.694Z,26.60
2023-06-10T19:48:26.971Z,26.60
2023-06-10T19:50:54.199Z,26.60
2023-06-10T19:53:21.457Z,26.80
2023-06-10T19:55:48.670Z,26.60
2023-06-10T19:58:15.947Z,26.50
2023-06-10T20:00:43.215Z,26.60
2023-06-10T20:03:10.725Z,26.30
2023-06-10T20:05:39.077Z,26.30
2023-06-10T20:08:06.460Z,26.60
2023-06-10T20:10:33.928Z,26.40
2023-06-10T20:13:01.296Z,26.30
2023-06-10T20:15:28.532Z,26.20
2023-06-10T20:17:56.026Z,26.20
2023-06-10T20:20:23.430Z,26.40
2023-06-10T20:22:50.662Z,26.50
2023-06-10T20:25:18.059Z,26.50
2023-06-10T20:27:45.434Z,26.30
2023-06-10T20:30:13.858Z,26.00
2023-06-10T20:32:41.116Z,26.30
2023-06-10T20:35:09.300Z,26.40
2023-06-10T20:37:36.742Z,26.40
2023-06-10T20:40:05.093Z,26.20
2023-06-10T20:42:32.305Z,26.30
2023-06-10T20:44:59.623Z,26.50
2023-06-10T20:47:26.870Z,26.10
2023-06-10T20:49:54.057Z,26.10
2023-06-10T20:52:21.288Z,26.30
2023-06-10T20:54:48.533Z,26.00
2023-06-10T20:57:15.775Z,26.10
2023-06-10T20:59:43.006Z,26.10
2023-06-10T21:02:10.496Z,25.90
2023-06-10T21:04:37.856Z,25.90
2023-06-10T21:07:05.477Z,25.60
2023-06-10T21:09:32.695Z,25.70
2023-06-10T21:11:59.898Z,25.70
2023-06-10T21:14:27.126Z,25.70
2023-06-10T21:16:54.370Z,25.60
2023-06-10T21:19:21.610Z,25.40
2023-06-10T21:21:48.876Z,25.80
2023-06-10T21:24:16.722Z,25.80
2023-06-10T21:26:43.997Z,25.70
2023-06-10T21:29:11.796Z,25.50
2023-06-10T21:31:39.073Z,25.60
2023-06-10T21:34:06.355Z,25.50
2023-06-10T21:36:33.552Z,25.80
2023-06-10T21:39:00.878Z,25.90
2023-06-10T21:41:30.382Z,25.70
2023-06-10T21:43:57.737Z,25.80
2023-06-10T21:46:27.130Z,25.70
2023-06-10T21:48:54.720Z,25.30
2023-06-10T21:51:21.951Z,25.60
2023-06-10T21:53:49.162Z,25.80
2023-06-10T21:56:16.418Z,25.90
2023-06-10T21:58:47.517Z,25.70
2023-06-10T22:01:16.897Z,25.80
2023-06-10T22:03:44.755Z,25.70
2023-06-10T22:06:12.088Z,25.70
2023-06-10T22:08:39.379Z,25.70
2023-06-10T22:11:06.693Z,25.50
2023-06-10T22:13:33.943Z,25.60
2023-06-10T22:16:01.244Z,25.70
2023-06-10T22:18:28.507Z,25.80
2023-06-10T22:20:55.747Z,25.90
2023-06-10T22:23:23.489Z,25.70
2023-06-10T22:25:50.753Z,25.80
2023-06-10T22:28:17.984Z,26.00
2023-06-10T22:30:45.445Z,26.00
2023-06-10T22:33:12.832Z,25.70
2023-06-10T22:35:40.218Z,25.70
2023-06-10T22:38:07.594Z,25.60
2023-06-10T22:40:35.079Z,25.70
2023-06-10T22:43:02.307Z,25.50
2023-06-10T22:45:29.555Z,25.30
2023-06-10T22:47:57.572Z,25.40
2023-06-10T22:50:26.125Z,25.30
2023-06-10T22:52:53.621Z,25.20
2023-06-10T22:55:20.912Z,25.10
2023-06-10T22:57:48.133Z,24.80
2023-06-10T23:00:15.800Z,24.80
2023-06-10T23:02:43.166Z,25.10
2023-06-10T23:05:11.796Z,25.10
2023-06-10T23:07:39.430Z,25.20
2023-06-10T23:10:07.579Z,25.30
2023-06-10T23:12:34.842Z,25.30
2023-06-10T23:15:02.412Z,25.10
2023-06-10T23:17:29.835Z,24.70
2023-06-10T23:19:58.152Z,24.70
2023-06-10T23:22:25.767Z,24.60
2023-06-10T23:24:53.663Z,24.60
2023-06-10T23:27:21.597Z,24.50
2023-06-10T23:29:58.275Z,24.30
2023-06-10T23:32:27.127Z,24.50
2023-06-10T23:34:54.665Z,24.50
2023-06-10T23:37:21.923Z,24.50
2023-06-10T23:39:49.630Z,24.50
2023-06-10T23:42:17.641Z,24.40
2023-06-10T23:44:44.882Z,24.70
2023-06-10T23:47:12.156Z,24.80
2023-06-10T23:49:39.383Z,24.60
2023-06-10T23:52:06.797Z,24.40
2023-06-10T23:54:34.014Z,24.70
2023-06-10T23:57:03.250Z,24.90
2023-06-10T23:59:30.600Z,24.80
